Time;durP1;ratioP1;P1;durP2;ratioP2;P2;SDS_P1;SDS_P2;PMS_P1;PMS_P2;Temp;Humidity;BMP_temperature;BMP_pressure;BME280_temperature;BME280_humidity;BME280_pressure;Samples;Min_cycle;Max_cycle;Signal;HPM_P1;HPM_P2
2023/07/17 00:00:30;;;;;;;21.00;12.07;;;;;;;25.95;75.27;95457.22;5059953;28;20677;-75
2023/07/17 00:02:55;;;;;;;21.50;11.80;;;;;;;25.78;76.02;95459.50;5050274;28;20598;-76
2023/07/17 00:05:22;;;;;;;19.40;11.65;;;;;;;25.92;74.88;95457.78;5052164;28;20721;-75
2023/07/17 00:07:47;;;;;;;19.00;12.32;;;;;;;25.94;75.05;95462.84;5051014;28;20226;-74
2023/07/17 00:10:13;;;;;;;17.42;11.82;;;;;;;25.76;75.78;95455.50;5063263;28;20270;-75
2023/07/17 00:12:38;;;;;;;18.42;11.85;;;;;;;25.75;75.60;95449.34;5058741;28;20251;-75
2023/07/17 00:15:05;;;;;;;18.48;11.88;;;;;;;25.87;75.48;95452.44;5044217;28;20232;-75
2023/07/17 00:17:31;;;;;;;16.42;12.38;;;;;;;25.92;75.07;95452.41;5049243;28;20705;-75
2023/07/17 00:19:56;;;;;;;18.40;12.57;;;;;;;25.74;75.74;95453.13;5065486;28;20224;-74
2023/07/17 00:22:22;;;;;;;17.83;12.40;;;;;;;25.72;76.82;95457.16;5055130;28;20231;-75
2023/07/17 00:24:49;;;;;;;18.10;12.65;;;;;;;25.69;76.32;95463.06;5042141;28;20235;-75
2023/07/17 00:27:14;;;;;;;17.58;12.23;;;;;;;25.62;76.08;95466.09;5059009;28;20230;-74
2023/07/17 00:29:40;;;;;;;17.98;12.13;;;;;;;25.74;75.48;95463.03;5058668;28;20225;-75
2023/07/17 00:32:06;;;;;;;17.48;12.27;;;;;;;25.85;74.68;95464.53;5066636;28;20225;-75
2023/07/17 00:34:32;;;;;;;15.00;11.10;;;;;;;25.87;72.31;95465.06;5053711;28;20901;-75
2023/07/17 00:36:57;;;;;;;15.63;10.85;;;;;;;25.80;71.17;95469.94;5055512;28;20232;-74
2023/07/17 00:39:23;;;;;;;16.48;10.10;;;;;;;25.80;70.43;95467.25;5052625;28;20285;-74
2023/07/17 00:41:49;;;;;;;16.20;10.68;;;;;;;25.83;69.69;95461.34;5058052;28;20224;-74
2023/07/17 00:44:14;;;;;;;17.60;10.40;;;;;;;25.81;69.10;95471.56;5052973;28;20304;-74
2023/07/17 00:46:40;;;;;;;13.77;9.68;;;;;;;25.72;70.37;95481.28;5070685;28;20239;-74
2023/07/17 00:49:06;;;;;;;13.18;9.80;;;;;;;25.65;69.38;95483.50;5039860;28;20265;-74
2023/07/17 00:51:32;;;;;;;14.82;10.05;;;;;;;25.68;68.23;95477.56;5047304;28;20287;-74
2023/07/17 00:53:58;;;;;;;13.57;9.57;;;;;;;25.70;68.44;95480.78;5061698;28;20240;-74
2023/07/17 00:56:24;;;;;;;12.60;9.73;;;;;;;25.76;67.99;95477.75;5058516;28;20233;-75
2023/07/17 00:58:50;;;;;;;14.27;9.55;;;;;;;25.64;68.32;95471.16;5056403;28;20274;-74
2023/07/17 01:01:15;;;;;;;13.43;9.93;;;;;;;25.56;68.59;95474.41;5040626;28;20220;-74
2023/07/17 01:03:41;;;;;;;18.00;9.27;;;;;;;25.58;67.47;95466.94;5054779;28;20253;-74
2023/07/17 01:06:06;;;;;;;13.98;8.90;;;;;;;25.57;67.38;95471.47;5068488;28;20224;-75
2023/07/17 01:08:32;;;;;;;14.48;8.98;;;;;;;25.54;66.81;95474.72;5045343;28;20223;-74
2023/07/17 01:10:57;;;;;;;12.43;8.93;;;;;;;25.50;66.66;95476.34;5042895;28;20212;-74
2023/07/17 01:13:23;;;;;;;16.42;9.18;;;;;;;25.39;67.50;95467.53;5059036;28;20236;-74
2023/07/17 01:15:48;;;;;;;15.07;9.40;;;;;;;25.39;67.79;95480.94;5075006;28;20637;-74
2023/07/17 01:18:14;;;;;;;14.50;8.63;;;;;;;25.28;68.77;95478.63;5050471;28;20833;-74
2023/07/17 01:20:40;;;;;;;14.07;8.60;;;;;;;25.28;67.96;95481.28;5054664;28;20229;-75
2023/07/17 01:23:06;;;;;;;12.20;8.43;;;;;;;25.19;67.22;95465.00;5052030;28;20217;-74
2023/07/17 01:25:31;;;;;;;12.70;8.55;;;;;;;25.22;67.46;95485.88;5050827;28;20237;-74
2023/07/17 01:27:57;;;;;;;13.77;8.40;;;;;;;25.32;66.43;95485.81;5055064;28;20693;-74
2023/07/17 01:30:23;;;;;;;13.13;7.90;;;;;;;25.23;67.15;95475.97;5064023;28;20220;-75
2023/07/17 01:32:48;;;;;;;14.05;8.27;;;;;;;25.20;65.71;95481.88;5072844;28;20232;-74
2023/07/17 01:35:14;;;;;;;13.35;7.82;;;;;;;25.11;65.51;95478.97;5054371;28;20231;-74
2023/07/17 01:37:39;;;;;;;11.88;7.85;;;;;;;24.97;66.27;95475.31;5051276;28;20236;-74
2023/07/17 01:40:09;;;;;;;12.05;7.60;;;;;;;24.80;67.11;95477.53;5040439;28;20666;-75
2023/07/17 01:42:34;;;;;;;9.93;7.57;;;;;;;24.92;66.42;95477.19;5055397;28;20220;-75
2023/07/17 01:45:00;;;;;;;12.82;7.47;;;;;;;25.00;65.72;95477.44;5050068;28;20236;-75
2023/07/17 01:47:25;;;;;;;11.57;7.80;;;;;;;25.11;64.73;95478.97;5045879;28;20291;-74
2023/07/17 01:49:51;;;;;;;10.65;7.45;;;;;;;25.11;64.82;95481.66;5064259;28;20224;-75
2023/07/17 01:52:16;;;;;;;9.93;7.30;;;;;;;24.86;65.04;95484.47;5068986;28;20238;-74
2023/07/17 01:54:42;;;;;;;11.02;7.43;;;;;;;24.82;65.40;95479.91;5048234;28;20236;-74
2023/07/17 01:57:07;;;;;;;10.77;7.15;;;;;;;24.82;65.18;95485.28;5017840;28;20237;-74
2023/07/17 01:59:39;;;;;;;12.23;7.78;;;;;;;24.74;66.10;95484.75;5290641;23;21292;-81
2023/07/17 02:02:05;;;;;;;10.02;7.15;;;;;;;24.67;66.33;95478.09;4950958;28;20243;-73
2023/07/17 02:04:31;;;;;;;11.13;7.38;;;;;;;24.46;67.07;95495.28;5226261;23;20258;-80
2023/07/17 02:06:56;;;;;;;11.57;7.57;;;;;;;24.52;66.96;95496.88;4997100;28;20329;-82
2023/07/17 02:09:22;;;;;;;12.38;7.20;;;;;;;24.53;66.54;95493.13;5003223;28;20231;-81
2023/07/17 02:11:47;;;;;;;10.98;7.28;;;;;;;24.67;66.12;95499.53;4967814;28;20235;-83
2023/07/17 02:14:13;;;;;;;13.13;7.50;;;;;;;24.66;65.98;95503.25;4974086;28;20235;-84
2023/07/17 02:16:38;;;;;;;10.20;7.32;;;;;;;24.62;66.38;95504.88;4950545;28;20772;-81
2023/07/17 02:19:04;;;;;;;12.27;7.72;;;;;;;24.53;66.98;95501.94;4969243;28;20219;-81
2023/07/17 02:21:29;;;;;;;11.27;7.70;;;;;;;24.22;68.04;95503.09;4984711;28;21076;-72
2023/07/17 02:23:57;;;;;;;15.00;7.80;;;;;;;24.15;68.62;95504.44;5008673;28;20239;-73
2023/07/17 02:26:22;;;;;;;9.13;7.47;;;;;;;24.27;68.77;95505.75;4971053;28;20912;-74
2023/07/17 02:28:48;;;;;;;13.40;7.35;;;;;;;24.19;68.20;95502.84;4958151;28;20228;-73
2023/07/17 02:31:14;;;;;;;10.60;7.40;;;;;;;24.32;67.58;95504.94;4983877;28;20301;-73
2023/07/17 02:33:39;;;;;;;19.05;7.47;;;;;;;24.21;67.36;95498.03;4968024;28;20243;-73
2023/07/17 02:36:05;;;;;;;13.95;6.93;;;;;;;24.14;67.17;95505.53;4984641;28;20224;-72
2023/07/17 02:38:30;;;;;;;11.27;7.22;;;;;;;24.15;67.12;95501.75;4973904;28;20232;-72
2023/07/17 02:40:56;;;;;;;14.05;6.85;;;;;;;24.23;65.79;95499.34;4953778;28;20239;-73
2023/07/17 02:43:21;;;;;;;8.70;6.60;;;;;;;24.08;65.71;95502.03;4953285;28;20235;-73
2023/07/17 02:45:46;;;;;;;9.85;6.80;;;;;;;24.13;66.04;95507.38;4955982;28;20640;-73
2023/07/17 02:48:12;;;;;;;8.35;6.20;;;;;;;24.24;65.32;95510.88;4955702;28;20236;-73
2023/07/17 02:50:37;;;;;;;11.38;6.40;;;;;;;24.23;64.16;95504.72;4958792;28;20235;-73
2023/07/17 02:53:03;;;;;;;10.35;6.60;;;;;;;24.37;63.50;95511.09;4956152;28;20233;-72
2023/07/17 02:55:29;;;;;;;12.05;6.70;;;;;;;24.33;63.35;95499.34;4987403;28;20244;-73
2023/07/17 02:57:54;;;;;;;9.32;6.70;;;;;;;24.33;64.08;95511.91;4959181;28;20267;-73
2023/07/17 03:00:20;;;;;;;9.98;6.90;;;;;;;24.33;63.65;95506.56;4971843;28;20757;-74
2023/07/17 03:02:46;;;;;;;10.13;6.20;;;;;;;24.28;63.50;95511.91;4971077;28;20230;-73
2023/07/17 03:05:12;;;;;;;9.10;6.63;;;;;;;24.36;63.37;95516.75;4896889;28;20243;-72
2023/07/17 03:07:41;;;;;;;11.27;6.60;;;;;;;24.47;63.49;95512.94;4893268;28;20309;-72
2023/07/17 03:10:07;;;;;;;11.95;6.57;;;;;;;24.47;63.04;95515.63;4915298;28;20241;-71
2023/07/17 03:12:33;;;;;;;11.93;6.63;;;;;;;24.30;63.64;95517.81;4895570;28;20260;-73
2023/07/17 03:14:59;;;;;;;10.73;6.38;;;;;;;24.27;63.51;95518.34;4880761;28;20668;-72
2023/07/17 03:17:24;;;;;;;9.55;6.65;;;;;;;24.15;64.32;95523.16;4888932;28;20245;-73
2023/07/17 03:19:53;;;;;;;9.82;6.55;;;;;;;24.19;64.02;95527.72;4898303;28;20230;-73
2023/07/17 03:22:18;;;;;;;13.52;6.60;;;;;;;24.08;65.08;95524.25;4914621;28;20395;-72
2023/07/17 03:24:44;;;;;;;12.18;6.72;;;;;;;24.01;65.37;95526.38;4913057;28;20778;-73
2023/07/17 03:27:09;;;;;;;13.93;7.20;;;;;;;24.05;65.26;95529.28;4883131;28;20257;-71
2023/07/17 03:29:35;;;;;;;9.10;6.85;;;;;;;24.12;65.25;95527.22;4897677;28;20238;-72
2023/07/17 03:32:00;;;;;;;11.80;6.90;;;;;;;24.05;65.95;95538.13;4907689;28;20695;-73
2023/07/17 03:34:28;;;;;;;12.25;6.35;;;;;;;23.95;65.79;95535.44;4912661;28;20226;-73
2023/07/17 03:36:54;;;;;;;10.93;6.53;;;;;;;23.95;65.83;95530.09;4893992;28;20670;-72
2023/07/17 03:39:20;;;;;;;9.18;6.68;;;;;;;23.90;65.79;95532.81;4917250;28;20234;-72
2023/07/17 03:41:45;;;;;;;13.07;6.97;;;;;;;23.86;65.64;95537.06;4894599;28;20230;-73
2023/07/17 03:44:12;;;;;;;11.20;6.55;;;;;;;23.89;64.68;95535.72;4897104;28;20276;-73
2023/07/17 03:46:37;;;;;;;11.18;6.82;;;;;;;24.04;63.96;95527.72;4907884;28;20226;-72
2023/07/17 03:49:03;;;;;;;11.77;6.68;;;;;;;23.96;63.25;95536.25;4907255;28;20269;-73
2023/07/17 03:51:28;;;;;;;9.55;6.70;;;;;;;24.03;63.74;95537.59;4908848;28;20238;-72
2023/07/17 03:53:54;;;;;;;12.23;6.70;;;;;;;23.80;64.56;95540.00;4910291;28;20237;-72
2023/07/17 03:56:20;;;;;;;12.15;6.78;;;;;;;23.88;64.90;95540.25;4909984;28;20233;-73
2023/07/17 03:58:45;;;;;;;10.65;6.50;;;;;;;23.91;65.21;95542.41;4891484;28;20280;-73
2023/07/17 04:01:11;;;;;;;12.73;6.57;;;;;;;24.06;64.29;95547.81;4925179;28;20257;-73
2023/07/17 04:03:37;;;;;;;9.77;6.45;;;;;;;23.95;65.55;95553.38;4903691;28;20234;-73
2023/07/17 04:06:03;;;;;;;15.52;6.85;;;;;;;23.81;66.77;95555.78;4896763;28;20230;-73
2023/07/17 04:08:28;;;;;;;9.82;6.43;;;;;;;23.94;66.09;95552.59;4914884;28;20328;-73
2023/07/17 04:10:54;;;;;;;10.88;6.70;;;;;;;24.03;65.76;95555.50;4896523;28;20312;-73
2023/07/17 04:13:20;;;;;;;14.30;7.18;;;;;;;24.04;65.44;95557.94;4911506;28;20249;-73
2023/07/17 04:15:46;;;;;;;9.25;6.57;;;;;;;24.04;65.07;95565.16;4928478;28;20637;-73
2023/07/17 04:18:11;;;;;;;13.13;6.85;;;;;;;24.26;63.21;95552.34;4897535;28;20244;-73
2023/07/17 04:20:41;;;;;;;10.30;6.60;;;;;;;24.34;63.69;95559.81;4915163;28;20229;-72
2023/07/17 04:23:07;;;;;;;13.55;6.93;;;;;;;24.27;65.19;95548.56;4896909;28;20274;-82
2023/07/17 04:25:32;;;;;;;11.45;6.70;;;;;;;24.30;64.13;95552.59;4914479;28;20231;-82
2023/07/17 04:28:03;;;;;;;11.15;6.93;;;;;;;24.29;64.19;95553.69;4898916;28;20234;-73
2023/07/17 04:30:29;;;;;;;11.00;6.53;;;;;;;24.22;65.46;95556.59;4881220;28;20698;-72
2023/07/17 04:32:54;;;;;;;10.80;6.97;;;;;;;24.31;64.91;95549.66;4912666;28;20238;-72
2023/07/17 04:35:20;;;;;;;13.52;7.00;;;;;;;24.32;65.34;95553.94;4898253;28;20718;-74
2023/07/17 04:37:46;;;;;;;11.32;7.05;;;;;;;24.42;63.42;95553.09;4915328;28;20245;-73
2023/07/17 04:40:12;;;;;;;14.18;7.18;;;;;;;24.53;65.62;95560.03;4911079;28;20264;-72
2023/07/17 04:42:37;;;;;;;16.83;6.85;;;;;;;24.20;67.77;95561.44;4913544;28;20244;-73
2023/07/17 04:45:05;;;;;;;29.70;7.95;;;;;;;24.16;67.47;95572.94;4892158;28;20242;-73
2023/07/17 04:47:31;;;;;;;19.08;7.95;;;;;;;24.20;67.41;95571.31;4909919;28;20726;-73
2023/07/17 04:49:57;;;;;;;18.75;6.97;;;;;;;24.25;66.81;95572.13;4894027;29;20246;-73
2023/07/17 04:52:22;;;;;;;13.07;7.10;;;;;;;24.33;67.60;95570.78;4878564;28;20650;-73
2023/07/17 04:54:48;;;;;;;18.13;6.68;;;;;;;24.24;67.72;95572.41;4898408;28;20780;-79
2023/07/17 04:57:13;;;;;;;29.65;7.38;;;;;;;24.09;67.84;95573.22;4897535;28;20230;-81
2023/07/17 04:59:39;;;;;;;19.85;7.07;;;;;;;24.18;68.36;95568.13;4903054;28;20249;-82
2023/07/17 05:02:04;;;;;;;12.13;6.90;;;;;;;24.44;66.61;95565.16;4902066;28;20237;-80
2023/07/17 05:04:30;;;;;;;17.90;6.65;;;;;;;24.54;64.68;95567.81;4895525;28;20246;-81
2023/07/17 05:06:57;;;;;;;15.77;6.60;;;;;;;24.68;64.81;95568.03;4911762;28;20234;-81
2023/07/17 05:09:23;;;;;;;9.93;6.45;;;;;;;24.73;61.45;95570.72;4913247;28;20238;-80
2023/07/17 05:11:49;;;;;;;8.50;6.20;;;;;;;24.86;61.38;95578.22;4916463;28;20949;-81
2023/07/17 05:14:15;;;;;;;10.77;6.45;;;;;;;25.32;60.69;95582.31;4909813;28;20277;-80
2023/07/17 05:16:40;;;;;;;11.15;6.25;;;;;;;26.41;57.79;95583.78;4911928;28;20321;-81
2023/07/17 05:19:06;;;;;;;14.35;6.38;;;;;;;27.70;53.39;95592.56;4914054;28;20299;-82
2023/07/17 05:21:32;;;;;;;11.55;6.15;;;;;;;26.93;56.47;95585.72;4924694;28;20309;-81
2023/07/17 05:23:58;;;;;;;12.90;6.30;;;;;;;26.05;58.82;95585.94;4879753;28;20242;-80
2023/07/17 05:26:23;;;;;;;14.40;6.38;;;;;;;25.73;60.52;95592.84;4901008;28;20280;-82
2023/07/17 05:28:50;;;;;;;13.38;6.60;;;;;;;25.51;59.53;95587.09;4912820;28;20230;-80
2023/07/17 05:31:16;;;;;;;11.07;6.50;;;;;;;25.35;60.52;95586.31;4882241;28;20226;-81
2023/07/17 05:33:50;;;;;;;15.25;6.78;;;;;;;25.46;61.54;95587.13;4886936;28;20238;-83
2023/07/17 05:36:18;;;;;;;10.68;6.60;;;;;;;25.74;59.82;95597.16;4912047;28;20603;-81
2023/07/17 05:38:44;;;;;;;11.55;6.32;;;;;;;25.43;62.07;95594.56;4917146;28;22140;-82
2023/07/17 05:41:13;;;;;;;12.35;6.93;;;;;;;25.96;60.79;95592.94;4984065;28;20600;-80
2023/07/17 05:43:46;;;;;;;11.13;6.60;;;;;;;26.55;57.52;95594.66;4921286;28;21117;-74
2023/07/17 05:46:12;;;;;;;11.38;7.22;;;;;;;25.86;60.43;95597.59;4864479;28;20276;-73
2023/07/17 05:48:46;;;;;;;12.25;7.13;;;;;;;25.70;61.61;95596.88;4902602;28;20242;-74
2023/07/17 05:51:12;;;;;;;12.90;6.88;;;;;;;25.49;62.42;95594.59;4895942;28;20249;-74
2023/07/17 05:53:37;;;;;;;11.23;7.15;;;;;;;25.62;61.20;95594.81;4956381;28;20677;-73
2023/07/17 05:56:03;;;;;;;13.27;7.20;;;;;;;25.62;62.80;95594.81;4896172;28;20242;-73
2023/07/17 05:58:32;;;;;;;14.70;8.02;;;;;;;25.56;61.34;95595.91;4876483;28;20749;-75
2023/07/17 06:00:57;;;;;;;11.50;7.95;;;;;;;25.52;62.38;95594.84;4898023;28;20277;-74
2023/07/17 06:03:23;;;;;;;13.05;7.40;;;;;;;25.56;62.27;95598.56;4912207;28;20254;-73
2023/07/17 06:05:48;;;;;;;12.55;7.43;;;;;;;25.51;62.36;95598.59;4896009;28;20302;-73
2023/07/17 06:08:17;;;;;;;19.70;7.05;;;;;;;25.49;61.65;95599.94;4912236;28;20972;-73
2023/07/17 06:10:43;;;;;;;11.75;7.60;;;;;;;25.56;61.25;95598.56;4894628;28;20259;-74
2023/07/17 06:13:12;;;;;;;13.13;7.75;;;;;;;25.68;61.43;95600.91;4896067;28;20720;-73
2023/07/17 06:18:16;;;;;;;10.52;7.10;;;;;;;25.74;60.44;95597.94;5134543;23;20244;-81
2023/07/17 06:20:44;;;;;;;14.30;7.70;;;;;;;25.75;61.91;95590.69;5037254;28;20320;-81
2023/07/17 06:23:09;;;;;;;16.23;8.05;;;;;;;25.72;60.47;95592.03;4998012;28;20237;-82
2023/07/17 06:25:37;;;;;;;14.50;8.52;;;;;;;25.79;60.29;95591.75;5003145;28;20233;-81
2023/07/17 06:28:04;;;;;;;12.90;8.25;;;;;;;25.82;60.94;95591.97;5011121;28;20234;-82
2023/07/17 06:30:32;;;;;;;12.10;8.00;;;;;;;25.90;61.11;95587.91;5018955;28;20226;-81
2023/07/17 06:32:59;;;;;;;13.70;7.90;;;;;;;25.76;60.34;95584.25;5006781;28;20232;-82
2023/07/17 06:35:27;;;;;;;12.57;8.15;;;;;;;25.94;64.02;95589.75;5034339;28;20241;-81
2023/07/17 06:37:53;;;;;;;14.65;8.07;;;;;;;26.02;63.91;95591.84;5033154;28;20305;-82
2023/07/17 06:40:18;;;;;;;17.33;8.50;;;;;;;26.11;62.83;95591.25;5044695;28;20309;-82
2023/07/17 06:42:44;;;;;;;15.40;9.20;;;;;;;26.24;63.35;95591.44;5019760;28;20795;-84
2023/07/17 06:45:09;;;;;;;17.15;9.75;;;;;;;26.37;62.37;95588.09;5000095;28;20239;-80
2023/07/17 06:47:35;;;;;;;17.10;9.45;;;;;;;26.40;60.83;95581.38;5032656;28;20317;-81
2023/07/17 06:50:00;;;;;;;14.35;8.85;;;;;;;26.50;61.36;95587.47;5033944;28;20280;-81
2023/07/17 06:52:25;;;;;;;13.80;8.95;;;;;;;26.50;60.36;95581.28;5011866;28;20674;-83
2023/07/17 06:54:51;;;;;;;16.42;9.10;;;;;;;26.55;60.79;95578.56;5015476;28;20238;-83
2023/07/17 06:57:16;;;;;;;14.18;9.05;;;;;;;26.49;62.75;95583.16;4994843;28;20292;-82
2023/07/17 06:59:42;;;;;;;13.68;9.05;;;;;;;26.46;62.86;95585.63;5015915;28;20237;-83
2023/07/17 07:02:07;;;;;;;15.07;9.27;;;;;;;26.47;61.74;95582.66;5014202;28;20235;-81
2023/07/17 07:04:33;;;;;;;13.88;9.25;;;;;;;26.48;61.33;95584.25;5005821;28;20234;-82
2023/07/17 07:06:58;;;;;;;18.33;9.20;;;;;;;26.61;60.39;95578.22;5040679;28;20284;-82
2023/07/17 07:09:24;;;;;;;13.27;8.90;;;;;;;26.66;60.74;95578.16;5003565;28;20238;-82
2023/07/17 07:11:49;;;;;;;12.02;8.93;;;;;;;26.72;61.62;95576.22;5002545;28;20249;-73
2023/07/17 07:14:15;;;;;;;13.73;9.18;;;;;;;26.79;60.71;95575.91;5018097;28;20590;-73
2023/07/17 07:16:41;;;;;;;18.35;8.82;;;;;;;26.93;58.95;95579.53;5001596;28;20253;-74
2023/07/17 07:19:06;;;;;;;16.95;9.20;;;;;;;26.96;58.48;95568.22;5012831;28;20749;-72
2023/07/17 07:21:32;;;;;;;15.57;9.85;;;;;;;26.94;62.76;95581.13;4983333;28;20222;-73
2023/07/17 07:23:57;;;;;;;15.90;9.60;;;;;;;26.92;59.27;95575.22;5032837;28;20749;-73
2023/07/17 07:26:23;;;;;;;17.27;9.35;;;;;;;26.92;60.07;95569.84;5012460;28;20234;-73
2023/07/17 07:28:48;;;;;;;17.70;9.68;;;;;;;27.04;59.23;95562.19;5002722;28;20749;-73
2023/07/17 07:31:14;;;;;;;13.30;9.52;;;;;;;27.16;59.02;95559.88;5032409;28;20272;-74
2023/07/17 07:33:39;;;;;;;14.70;9.93;;;;;;;27.27;58.80;95566.75;5010443;28;20681;-73
2023/07/17 07:36:05;;;;;;;17.27;9.75;;;;;;;27.29;58.75;95564.56;5001631;28;20238;-73
2023/07/17 07:38:30;;;;;;;16.83;9.40;;;;;;;27.31;59.46;95565.91;5014765;28;20214;-73
2023/07/17 07:40:56;;;;;;;17.70;9.93;;;;;;;27.27;58.93;95562.16;5017182;28;20302;-73
2023/07/17 07:43:27;;;;;;;13.43;9.15;;;;;;;27.33;58.14;95555.66;5033456;28;20271;-72
2023/07/17 07:45:53;;;;;;;18.73;9.85;;;;;;;27.38;58.00;95560.19;5006024;28;20380;-74
2023/07/17 07:48:19;;;;;;;14.55;9.25;;;;;;;27.51;58.44;95558.69;4995282;28;20803;-73
2023/07/17 07:50:45;;;;;;;17.02;9.85;;;;;;;27.66;58.32;95556.56;5000498;28;20246;-75
2023/07/17 07:53:10;;;;;;;14.73;9.65;;;;;;;27.63;57.24;95556.34;5030882;28;20229;-73
2023/07/17 07:55:36;;;;;;;16.48;10.05;;;;;;;27.71;57.68;95564.56;5048924;28;20231;-73
2023/07/17 07:58:01;;;;;;;16.38;9.90;;;;;;;27.74;58.86;95558.59;5051297;28;20230;-73
2023/07/17 08:00:27;;;;;;;17.90;9.93;;;;;;;27.86;58.30;95555.47;5055679;28;20224;-73
2023/07/17 08:02:54;;;;;;;20.67;10.00;;;;;;;27.92;59.43;95549.72;5051935;28;20263;-74
2023/07/17 08:05:21;;;;;;;15.25;9.65;;;;;;;28.02;59.43;95554.97;5056445;28;20315;-73
2023/07/17 08:07:46;;;;;;;20.08;10.00;;;;;;;28.08;57.59;95557.59;5032809;28;20296;-83
2023/07/17 08:10:15;;;;;;;17.13;10.02;;;;;;;28.12;56.54;95547.81;5032079;28;20316;-83
2023/07/17 08:12:41;;;;;;;16.20;9.93;;;;;;;28.17;57.09;95550.44;5036158;28;20252;-82
2023/07/17 08:15:07;;;;;;;20.83;10.98;;;;;;;28.22;56.71;95542.28;5018524;28;20233;-82
2023/07/17 08:17:34;;;;;;;22.27;10.43;;;;;;;28.28;57.11;95546.50;5014760;28;20234;-82
2023/07/17 08:19:59;;;;;;;17.90;10.65;;;;;;;28.34;56.66;95539.91;5016626;28;20237;-82
2023/07/17 08:22:27;;;;;;;22.35;10.35;;;;;;;28.39;55.33;95534.44;5049359;28;20292;-82
2023/07/17 08:24:53;;;;;;;16.05;10.10;;;;;;;28.45;55.49;95536.75;5040073;28;20224;-84
2023/07/17 08:27:18;;;;;;;18.10;10.88;;;;;;;28.56;54.93;95530.06;5055751;28;20588;-81
2023/07/17 08:29:44;;;;;;;19.88;10.32;;;;;;;28.60;55.35;95538.41;5051370;28;20232;-82
2023/07/17 08:32:15;;;;;;;15.13;10.70;;;;;;;28.65;54.34;95533.72;5062178;28;20623;-83
2023/07/17 08:34:40;;;;;;;14.43;10.43;;;;;;;28.78;54.60;95532.09;5036518;28;20662;-81
2023/07/17 08:37:06;;;;;;;17.63;10.90;;;;;;;28.93;53.94;95533.72;5054696;28;20233;-81
2023/07/17 08:39:31;;;;;;;20.38;11.25;;;;;;;29.04;54.61;95533.22;5043088;28;20816;-82
2023/07/17 08:41:57;;;;;;;20.67;10.85;;;;;;;29.11;54.55;95536.28;5037826;28;20236;-82
2023/07/17 08:44:23;;;;;;;18.83;10.85;;;;;;;29.01;54.05;95533.84;5036742;28;20224;-82
2023/07/17 08:46:48;;;;;;;17.30;11.90;;;;;;;28.98;52.98;95533.63;5043547;28;20228;-83
2023/07/17 08:49:16;;;;;;;17.80;11.32;;;;;;;29.10;53.58;95526.63;5039942;28;20276;-80
2023/07/17 08:51:41;;;;;;;17.50;11.45;;;;;;;29.23;53.17;95531.22;5040341;28;20228;-82
2023/07/17 08:54:07;;;;;;;18.02;11.50;;;;;;;29.39;54.24;95528.22;5029931;28;20237;-80
2023/07/17 08:56:33;;;;;;;20.27;11.15;;;;;;;29.37;53.01;95531.22;5031734;28;20233;-82
2023/07/17 08:58:58;;;;;;;22.52;11.30;;;;;;;29.42;54.23;95525.72;5027887;28;20225;-84
2023/07/17 09:01:24;;;;;;;22.60;11.52;;;;;;;29.55;54.05;95516.78;5028936;28;20267;-81
2023/07/17 09:03:51;;;;;;;24.65;11.90;;;;;;;29.54;53.79;95522.50;5048333;28;20236;-84
2023/07/17 09:06:22;;;;;;;18.38;11.40;;;;;;;29.60;53.56;95521.25;5039713;28;20366;-83
2023/07/17 09:08:48;;;;;;;20.92;11.20;;;;;;;29.68;53.59;95513.25;5068238;28;20225;-84
2023/07/17 09:11:13;;;;;;;17.20;11.07;;;;;;;29.77;52.67;95513.34;5067275;28;20240;-83
2023/07/17 09:13:42;;;;;;;21.33;11.38;;;;;;;29.88;52.52;95512.78;5050578;28;20234;-83
2023/07/17 09:16:18;;;;;;;22.05;11.85;;;;;;;30.00;54.46;95512.25;5070878;28;20226;-82
2023/07/17 09:18:47;;;;;;;17.60;11.35;;;;;;;30.10;53.46;95503.91;5027760;28;20649;-79
2023/07/17 09:21:19;;;;;;;18.20;11.40;;;;;;;30.11;51.70;95510.91;5033420;28;20747;-83
2023/07/17 09:23:54;;;;;;;20.50;11.15;;;;;;;30.12;51.52;95511.72;5037832;28;20253;-82
2023/07/17 09:26:21;;;;;;;16.65;10.95;;;;;;;30.18;50.43;95505.06;5040721;28;20243;-84
2023/07/17 09:28:55;;;;;;;18.25;11.00;;;;;;;30.27;52.72;95506.72;5055806;28;20229;-82
2023/07/17 09:31:24;;;;;;;19.05;11.23;;;;;;;30.51;50.50;95501.78;5054427;28;20225;-82
2023/07/17 09:33:50;;;;;;;18.20;11.30;;;;;;;30.61;50.19;95509.63;5057444;28;20229;-79
2023/07/17 09:36:16;;;;;;;20.80;11.60;;;;;;;30.67;50.62;95497.56;5054438;28;20221;-82
2023/07/17 09:38:41;;;;;;;18.45;11.40;;;;;;;30.71;51.53;95497.75;5014605;28;20230;-82
2023/07/17 09:41:19;;;;;;;24.55;11.00;;;;;;;30.78;47.42;95500.00;5053500;28;20224;-81
2023/07/17 09:43:58;;;;;;;16.90;10.57;;;;;;;30.83;49.98;95491.75;5050826;28;20236;-81
2023/07/17 09:46:25;;;;;;;17.40;10.30;;;;;;;30.87;48.59;95492.69;5012555;28;20225;-81
2023/07/17 09:48:52;;;;;;;16.02;10.00;;;;;;;30.98;48.35;95491.31;5036142;28;20236;-84
2023/07/17 09:51:18;;;;;;;16.02;10.18;;;;;;;31.07;48.67;95492.16;5037118;28;20216;-83
2023/07/17 09:53:45;;;;;;;16.33;9.70;;;;;;;31.27;45.43;95496.97;5051549;28;20229;-80
2023/07/17 09:56:11;;;;;;;15.00;9.10;;;;;;;31.22;43.73;95497.09;5017794;28;20253;-82
2023/07/17 09:58:38;;;;;;;11.13;9.00;;;;;;;31.21;43.51;95493.63;5051914;28;20225;-81
2023/07/17 10:01:03;;;;;;;12.93;9.00;;;;;;;31.38;45.82;95498.28;5039014;28;20997;-83
2023/07/17 10:03:29;;;;;;;11.38;8.45;;;;;;;31.43;45.54;95492.72;4994450;28;20230;-82
2023/07/17 10:05:57;;;;;;;12.52;8.50;;;;;;;31.56;43.70;95494.50;5039321;28;20225;-83
2023/07/17 10:08:23;;;;;;;13.18;7.97;;;;;;;31.63;42.47;95491.28;5020845;28;20229;-82
2023/07/17 10:10:48;;;;;;;14.40;8.25;;;;;;;31.74;40.93;95490.66;5058261;28;20213;-80
2023/07/17 10:13:14;;;;;;;12.73;7.80;;;;;;;31.77;42.26;95491.94;5041461;28;20237;-83
2023/07/17 10:15:39;;;;;;;14.48;8.70;;;;;;;31.83;39.93;95486.06;5020625;28;20225;-80
2023/07/17 10:18:10;;;;;;;11.48;8.85;;;;;;;31.89;41.57;95486.66;5026196;28;20252;-81
2023/07/17 10:20:36;;;;;;;14.27;8.43;;;;;;;32.06;42.25;95481.25;5022736;28;20319;-81
2023/07/17 10:23:01;;;;;;;13.10;8.85;;;;;;;32.03;42.01;95479.19;5056653;28;20679;-84
2023/07/17 10:25:27;;;;;;;12.05;8.43;;;;;;;32.14;42.75;95468.81;5029850;28;20757;-80
2023/07/17 10:28:02;;;;;;;12.40;8.40;;;;;;;32.20;40.98;95475.66;5015963;28;20256;-83
2023/07/17 10:30:35;;;;;;;10.43;7.68;;;;;;;32.06;38.52;95475.84;5050808;28;20224;-78
2023/07/17 10:33:13;;;;;;;12.90;7.90;;;;;;;32.02;39.50;95472.19;5017086;28;20263;-79
2023/07/17 10:35:57;;;;;;;14.43;7.85;;;;;;;32.22;37.02;95468.03;5031335;28;20232;-82
2023/07/17 10:38:30;;;;;;;10.10;7.72;;;;;;;32.31;37.80;95463.38;5018984;28;20235;-80
2023/07/17 10:41:02;;;;;;;13.55;7.18;;;;;;;32.42;37.12;95465.41;5016265;28;20313;-80
2023/07/17 10:43:28;;;;;;;9.65;6.85;;;;;;;32.46;36.97;95463.63;5029381;28;20241;-82
2023/07/17 10:45:53;;;;;;;9.85;7.07;;;;;;;32.61;36.20;95465.03;5000345;28;20270;-83
2023/07/17 10:48:19;;;;;;;11.93;7.53;;;;;;;32.47;35.38;95459.00;5022280;28;20240;-84
2023/07/17 10:50:52;;;;;;;10.80;7.47;;;;;;;32.56;36.41;95459.78;5018286;28;20256;-80
2023/07/17 10:53:17;;;;;;;12.25;7.82;;;;;;;32.62;39.81;95461.22;5020005;28;20235;-83
2023/07/17 10:55:43;;;;;;;12.02;7.90;;;;;;;32.58;39.17;95452.94;5016958;28;20989;-83
2023/07/17 10:58:09;;;;;;;12.63;7.78;;;;;;;32.59;39.77;95461.84;5035503;28;20229;-83
2023/07/17 11:00:34;;;;;;;8.82;7.47;;;;;;;32.68;38.91;95465.31;5057405;28;20320;-82
2023/07/17 11:03:00;;;;;;;11.90;6.88;;;;;;;32.69;36.55;95458.78;5051619;28;20233;-81
2023/07/17 11:05:26;;;;;;;11.32;6.90;;;;;;;32.66;36.44;95453.22;5017759;28;20760;-83
2023/07/17 11:07:51;;;;;;;10.77;7.35;;;;;;;32.71;38.22;95453.84;5019023;28;20229;-82
2023/07/17 11:10:17;;;;;;;10.20;7.20;;;;;;;32.85;35.82;95445.47;5018564;28;20240;-83
2023/07/17 11:12:44;;;;;;;8.85;6.85;;;;;;;32.98;36.73;95444.44;5017936;28;20230;-82
2023/07/17 11:15:16;;;;;;;11.60;8.18;;;;;;;32.82;39.72;95443.41;5018788;28;20252;-82
2023/07/17 11:17:44;;;;;;;10.05;7.78;;;;;;;32.91;38.31;95436.03;5042090;28;20243;-83
2023/07/17 11:20:11;;;;;;;12.32;7.75;;;;;;;32.98;38.78;95436.31;5032477;28;20716;-81
2023/07/17 11:22:37;;;;;;;10.75;7.13;;;;;;;32.96;38.06;95435.84;5013847;28;20240;-83